Time;durP1;ratioP1;P1;durP2;ratioP2;P2;SDS_P1;SDS_P2;PMS_P1;PMS_P2;Temp;Humidity;BMP_temperature;BMP_pressure;BME280_temperature;BME280_humidity;BME280_pressure;Samples;Min_cycle;Max_cycle;Signal;HPM_P1;HPM_P2
2021/03/27 00:00:14;;;;;;;59.90;29.58;;;;;;;4.20;81.24;101513.97;5088481;28;20031;-72
2021/03/27 00:02:49;;;;;;;52.08;26.55;;;;;;;4.30;80.94;101509.19;5094103;27;20035;-73
2021/03/27 00:05:21;;;;;;;54.35;28.10;;;;;;;4.35;80.42;101512.09;5096923;27;20042;-74
2021/03/27 00:07:58;;;;;;;60.42;26.67;;;;;;;4.39;80.63;101510.72;5094686;28;20131;-74
2021/03/27 00:11:10;;;;;;;54.17;28.08;;;;;;;4.43;81.43;101503.19;5092356;27;20023;-77
2021/03/27 00:13:51;;;;;;;55.03;27.20;;;;;;;4.49;82.60;101503.28;5091194;28;21581;-74
2021/03/27 00:16:39;;;;;;;51.10;26.50;;;;;;;4.58;81.16;101501.31;5092267;28;20036;-76
2021/03/27 00:19:23;;;;;;;55.33;27.85;;;;;;;4.63;80.98;101495.41;5091380;27;20044;-75
2021/03/27 00:21:55;;;;;;;54.00;27.50;;;;;;;4.68;80.08;101485.88;5086925;28;20027;-74
2021/03/27 00:24:29;;;;;;;55.25;26.63;;;;;;;4.67;80.27;101483.41;5088098;27;20827;-76
2021/03/27 00:27:01;;;;;;;51.75;26.80;;;;;;;4.68;80.69;101475.28;5082613;28;20068;-76
2021/03/27 00:29:36;;;;;;;52.20;27.55;;;;;;;4.66;80.90;101469.31;5081596;28;20027;-71
2021/03/27 00:32:17;;;;;;;53.83;26.52;;;;;;;4.72;80.43;101471.22;5093328;28;20532;-75
2021/03/27 00:34:49;;;;;;;51.67;28.27;;;;;;;4.79;80.07;101468.59;5094094;28;20055;-72
2021/03/27 00:37:20;;;;;;;56.10;29.40;;;;;;;4.80;80.24;101460.44;5085496;27;20028;-73
2021/03/27 00:39:50;;;;;;;51.97;27.08;;;;;;;4.77;80.47;101463.47;5085860;27;20036;-75
2021/03/27 00:42:19;;;;;;;57.65;28.27;;;;;;;4.82;80.63;101455.75;5090660;28;20027;-73
2021/03/27 00:44:52;;;;;;;56.90;27.70;;;;;;;4.80;80.59;101452.47;5077502;27;20036;-71
2021/03/27 00:47:20;;;;;;;52.05;28.70;;;;;;;4.85;80.32;101449.25;5095369;28;20032;-76
2021/03/27 00:50:09;;;;;;;56.25;28.58;;;;;;;4.81;80.41;101448.00;5092635;28;20032;-73
2021/03/27 00:52:38;;;;;;;53.30;28.45;;;;;;;4.85;80.35;101449.25;5088072;28;21463;-73
2021/03/27 00:55:37;;;;;;;50.85;27.88;;;;;;;4.77;81.58;101442.25;5090454;28;20119;-72
2021/03/27 00:58:15;;;;;;;54.25;28.38;;;;;;;4.83;80.50;101435.34;5073908;27;20181;-70
2021/03/27 01:01:05;;;;;;;56.42;29.48;;;;;;;4.79;80.53;101431.44;5081822;28;20479;-76
2021/03/27 01:03:40;;;;;;;52.53;27.90;;;;;;;4.74;81.19;101425.88;5050457;28;20063;-74
2021/03/27 01:06:13;;;;;;;52.83;28.10;;;;;;;4.80;80.26;101425.09;5090532;27;20039;-71
2021/03/27 01:08:43;;;;;;;53.45;27.52;;;;;;;4.81;80.43;101418.78;5091844;28;20367;-71
2021/03/27 01:11:40;;;;;;;49.10;27.75;;;;;;;4.74;80.79;101413.44;5090323;28;20063;-72
2021/03/27 01:14:11;;;;;;;54.03;26.52;;;;;;;4.75;80.48;101406.28;5079062;28;20035;-73
2021/03/27 01:16:47;;;;;;;51.90;26.17;;;;;;;4.75;80.56;101407.13;5090670;28;22110;-74
2021/03/27 01:19:16;;;;;;;53.47;27.55;;;;;;;4.80;80.11;101394.06;5075858;28;20078;-73
2021/03/27 01:21:46;;;;;;;53.55;26.45;;;;;;;4.79;79.88;101392.44;5095839;28;20035;-74
2021/03/27 01:24:15;;;;;;;49.83;27.25;;;;;;;4.70;81.07;101395.44;5076676;28;20038;-76
2021/03/27 01:26:50;;;;;;;53.42;28.13;;;;;;;4.73;79.92;101385.25;5092802;28;20040;-75
2021/03/27 01:29:26;;;;;;;54.70;28.67;;;;;;;4.71;80.06;101381.97;5091662;28;20618;-76
2021/03/27 01:32:15;;;;;;;51.45;28.20;;;;;;;4.69;80.30;101373.38;5083593;27;20031;-75
2021/03/27 01:34:45;;;;;;;52.28;28.60;;;;;;;4.69;80.28;101369.91;5071550;28;20039;-77
2021/03/27 01:37:19;;;;;;;53.05;28.30;;;;;;;4.67;80.40;101366.59;5091073;28;20114;-74
2021/03/27 01:40:08;;;;;;;54.95;29.30;;;;;;;4.62;80.42;101361.06;5094120;28;20063;-76
2021/03/27 01:42:55;;;;;;;53.40;27.85;;;;;;;4.61;80.48;101359.44;5087545;28;20043;-71
2021/03/27 01:45:26;;;;;;;51.72;27.05;;;;;;;4.48;81.44;101363.63;5088556;27;20059;-73
2021/03/27 01:48:07;;;;;;;54.80;29.10;;;;;;;4.45;81.94;101369.31;5093790;28;20027;-72
2021/03/27 01:50:47;;;;;;;54.55;28.40;;;;;;;4.49;81.48;101367.94;5095541;28;20087;-73
2021/03/27 01:53:19;;;;;;;52.53;28.38;;;;;;;4.48;81.63;101362.78;5093480;27;20161;-72
2021/03/27 01:55:49;;;;;;;53.50;27.60;;;;;;;4.51;81.19;101346.50;5094817;28;20039;-73
2021/03/27 01:58:35;;;;;;;55.00;28.83;;;;;;;4.53;80.86;101345.31;5091612;28;20042;-74
2021/03/27 02:01:07;;;;;;;55.00;28.67;;;;;;;4.52;80.72;101343.66;5092477;28;20032;-73
2021/03/27 02:03:47;;;;;;;52.53;27.38;;;;;;;4.49;80.96;101341.41;5093616;28;20031;-71
2021/03/27 02:06:34;;;;;;;59.70;30.17;;;;;;;4.51;80.54;101335.91;5077968;28;20059;-73
2021/03/27 02:09:28;;;;;;;58.17;28.25;;;;;;;4.51;80.73;101342.03;5092306;28;20440;-71
2021/03/27 02:12:35;;;;;;;56.17;30.02;;;;;;;4.48;80.45;101330.94;5083264;28;20028;-74
2021/03/27 02:15:08;;;;;;;54.90;29.40;;;;;;;4.51;80.17;101334.06;5092873;28;20042;-76
2021/03/27 02:18:00;;;;;;;51.78;28.67;;;;;;;4.38;81.15;101326.00;5095123;27;20084;-75
2021/03/27 02:20:39;;;;;;;59.03;27.75;;;;;;;4.43;80.59;101328.88;5091989;28;20039;-71
2021/03/27 02:23:33;;;;;;;57.03;29.60;;;;;;;4.38;80.78;101328.66;5092037;28;20097;-72
2021/03/27 02:26:43;;;;;;;58.75;30.10;;;;;;;4.32;81.04;101320.66;5046445;28;20047;-75
2021/03/27 02:29:39;;;;;;;55.97;28.88;;;;;;;4.34;80.67;101322.09;4988946;28;20061;-73
2021/03/27 02:32:10;;;;;;;60.88;29.30;;;;;;;4.32;80.53;101318.00;5094709;28;20031;-74
2021/03/27 02:35:09;;;;;;;56.08;28.15;;;;;;;4.29;80.68;101313.88;5075192;28;20034;-73
2021/03/27 02:38:06;;;;;;;49.85;27.13;;;;;;;4.32;80.48;101312.69;5094567;28;20497;-75
2021/03/27 02:40:36;;;;;;;58.63;29.55;;;;;;;4.33;80.44;101309.03;5022848;28;20043;-71
2021/03/27 02:43:16;;;;;;;59.70;28.95;;;;;;;4.33;80.28;101301.91;5093324;28;20065;-73
2021/03/27 02:45:57;;;;;;;53.60;28.08;;;;;;;4.30;80.47;101301.44;5094970;28;20027;-75
2021/03/27 02:48:52;;;;;;;53.42;27.92;;;;;;;4.32;80.41;101305.56;5092422;28;20040;-72
2021/03/27 02:51:26;;;;;;;57.03;27.65;;;;;;;4.35;79.97;101304.34;5084378;28;20047;-76
2021/03/27 02:54:23;;;;;;;52.83;27.58;;;;;;;4.30;80.37;101291.66;5086954;28;20040;-72
2021/03/27 02:57:02;;;;;;;52.50;27.05;;;;;;;4.32;80.05;101291.47;5091500;28;20029;-74
2021/03/27 02:59:47;;;;;;;54.70;29.20;;;;;;;4.33;80.23;101285.16;5092668;28;20130;-75
2021/03/27 03:02:23;;;;;;;53.00;27.33;;;;;;;4.28;80.79;101288.38;5090791;28;20023;-75
2021/03/27 03:05:42;;;;;;;54.10;28.25;;;;;;;4.32;80.56;101281.69;5073847;28;20485;-75
2021/03/27 03:08:14;;;;;;;56.00;28.10;;;;;;;4.36;80.11;101282.94;5028029;28;20037;-74
2021/03/27 03:11:03;;;;;;;53.78;26.95;;;;;;;4.34;80.97;101282.31;5030109;28;20442;-73
2021/03/27 03:13:41;;;;;;;47.90;26.05;;;;;;;4.46;80.69;101280.75;5072759;28;20044;-72
2021/03/27 03:16:14;;;;;;;51.55;27.88;;;;;;;4.51;79.70;101285.47;5097595;28;20031;-72
2021/03/27 03:19:06;;;;;;;49.58;27.00;;;;;;;4.51;79.03;101270.38;5096385;28;20497;-76
2021/03/27 03:21:46;;;;;;;48.95;26.70;;;;;;;4.47;79.57;101274.41;5097236;27;20027;-77
2021/03/27 03:24:16;;;;;;;54.58;27.02;;;;;;;4.55;79.07;101268.97;5081620;27;20031;-71
2021/03/27 03:26:42;;;;;;;52.08;26.58;;;;;;;4.57;79.25;101268.75;5096342;28;20169;-76
2021/03/27 03:29:32;;;;;;;51.05;26.25;;;;;;;4.58;79.13;101253.66;5095104;28;21506;-72
2021/03/27 03:32:10;;;;;;;46.85;26.10;;;;;;;4.52;79.44;101247.31;5093794;28;20062;-77
2021/03/27 03:34:56;;;;;;;53.03;28.05;;;;;;;4.43;79.71;101253.78;5094718;28;20059;-74
2021/03/27 03:37:43;;;;;;;51.05;26.42;;;;;;;4.40;79.92;101249.69;5084288;28;20043;-71
2021/03/27 03:40:46;;;;;;;54.47;27.83;;;;;;;4.38;80.90;101242.94;5097984;28;20039;-72
2021/03/27 03:43:27;;;;;;;49.08;27.02;;;;;;;4.35;80.18;101238.84;5092743;27;21893;-72
2021/03/27 03:46:17;;;;;;;50.47;27.38;;;;;;;4.34;79.96;101242.53;5083372;28;20066;-73
2021/03/27 03:49:19;;;;;;;50.22;25.95;;;;;;;4.36;80.05;101243.13;5096505;28;20084;-72
2021/03/27 03:51:45;;;;;;;47.08;25.88;;;;;;;4.42;79.98;101230.91;5094208;27;20035;-73
2021/03/27 03:54:36;;;;;;;48.65;25.27;;;;;;;4.57;79.18;101230.78;5095240;28;20478;-72
2021/03/27 03:57:16;;;;;;;49.65;24.75;;;;;;;4.64;78.34;101218.38;5098415;28;20034;-75
2021/03/27 03:59:53;;;;;;;51.35;26.05;;;;;;;4.70;78.20;101217.59;5091201;28;20047;-73
2021/03/27 04:02:34;;;;;;;47.03;24.98;;;;;;;4.69;78.43;101214.13;5072467;28;20028;-73
2021/03/27 04:05:12;;;;;;;49.88;24.35;;;;;;;4.68;78.71;101214.31;5073864;28;20481;-72
2021/03/27 04:07:46;;;;;;;45.67;24.63;;;;;;;4.69;79.19;101211.47;5100659;28;20036;-72
2021/03/27 04:10:18;;;;;;;49.60;26.73;;;;;;;4.74;78.68;101213.53;5076957;27;20673;-74
2021/03/27 04:12:50;;;;;;;48.00;26.10;;;;;;;4.77;78.34;101207.81;5097288;28;20493;-75
2021/03/27 04:15:28;;;;;;;45.75;25.33;;;;;;;4.81;78.24;101207.22;5098310;28;20031;-71
2021/03/27 04:18:12;;;;;;;46.35;25.05;;;;;;;4.90;78.06;101205.22;5092387;28;20746;-73
2021/03/27 04:20:56;;;;;;;46.78;25.40;;;;;;;4.93;77.53;101190.72;5079183;28;20035;-74
2021/03/27 04:23:31;;;;;;;46.20;24.75;;;;;;;4.90;78.27;101189.28;5096690;28;20030;-74
2021/03/27 04:26:10;;;;;;;44.78;24.15;;;;;;;4.95;78.22;101192.16;5095057;27;20046;-75
2021/03/27 04:29:03;;;;;;;41.08;22.50;;;;;;;4.99;78.03;101185.41;5094414;27;20036;-77
2021/03/27 04:31:39;;;;;;;46.90;22.30;;;;;;;5.06;77.76;101188.09;5097064;27;20028;-72
2021/03/27 04:34:12;;;;;;;42.78;21.15;;;;;;;5.16;77.05;101185.84;5097118;27;20032;-73
2021/03/27 04:36:50;;;;;;;44.17;22.95;;;;;;;5.24;77.11;101182.22;5093903;27;20524;-75
2021/03/27 04:39:15;;;;;;;40.05;21.17;;;;;;;5.30;76.97;101181.38;5097361;27;20024;-73
2021/03/27 04:42:15;;;;;;;42.75;21.13;;;;;;;5.40;76.94;101177.31;5078081;28;20057;-76
2021/03/27 04:45:02;;;;;;;41.35;21.83;;;;;;;5.49;76.44;101177.09;5077110;28;20043;-73
2021/03/27 04:47:58;;;;;;;40.13;19.88;;;;;;;5.57;76.51;101191.03;5094846;28;20089;-75
2021/03/27 04:50:29;;;;;;;;;;;;;;;5.59;76.22;101173.03;5090657;27;20128;-72
2021/03/27 04:53:00;;;;;;;42.80;20.98;;;;;;;5.68;76.19;101184.25;5073668;28;19924;-72
2021/03/27 04:55:33;;;;;;;40.78;22.33;;;;;;;5.73;75.90;101176.47;5092288;28;20028;-72
2021/03/27 04:58:22;;;;;;;44.03;23.02;;;;;;;5.72;76.22;101180.97;5094154;28;20031;-72
2021/03/27 05:00:51;;;;;;;38.40;20.17;;;;;;;5.74;76.07;101178.97;5093038;27;20049;-76
2021/03/27 05:03:26;;;;;;;44.92;23.05;;;;;;;5.74;76.00;101178.13;5093929;27;20155;-75
2021/03/27 05:06:03;;;;;;;37.20;20.50;;;;;;;5.77;75.87;101172.41;5096174;28;20020;-73
2021/03/27 05:08:47;;;;;;;43.55;22.17;;;;;;;5.81;75.63;101170.16;5096699;28;20114;-71
2021/03/27 05:11:44;;;;;;;39.53;22.42;;;;;;;5.80;76.08;101169.34;5096255;27;20478;-75
2021/03/27 05:14:54;;;;;;;38.58;21.90;;;;;;;5.82;76.09;101174.44;5076485;28;20511;-71
2021/03/27 05:17:31;;;;;;;42.58;21.42;;;;;;;5.86;76.20;101173.00;5092312;28;20023;-73
2021/03/27 05:20:05;;;;;;;42.42;22.67;;;;;;;5.83;76.65;101166.25;5096853;27;20032;-74
2021/03/27 05:22:55;;;;;;;40.65;22.13;;;;;;;5.89;76.26;101167.28;5096196;28;20028;-72
2021/03/27 05:25:33;;;;;;;41.80;21.95;;;;;;;5.97;75.56;101161.78;5096308;27;20023;-72
2021/03/27 05:27:58;;;;;;;42.03;20.83;;;;;;;6.01;75.77;101165.66;5078210;28;20031;-76
2021/03/27 05:30:25;;;;;;;38.97;21.55;;;;;;;6.03;75.27;101166.25;5095713;27;20035;-72
2021/03/27 05:33:12;;;;;;;39.47;21.67;;;;;;;6.02;75.53;101164.63;5080055;27;20815;-74
2021/03/27 05:36:02;;;;;;;36.70;20.75;;;;;;;6.00;76.00;101183.47;5089430;28;20472;-73
2021/03/27 05:38:43;;;;;;;39.92;22.75;;;;;;;5.87;77.06;101193.25;5094618;28;20022;-73
2021/03/27 05:41:26;;;;;;;42.50;22.33;;;;;;;5.88;77.82;101181.59;5096494;28;20444;-72
2021/03/27 05:44:20;;;;;;;40.72;21.27;;;;;;;5.94;77.53;101186.97;5077411;28;20023;-76
2021/03/27 05:47:43;;;;;;;41.72;22.98;;;;;;;5.98;77.05;101184.69;5096570;27;20092;-74
2021/03/27 05:50:39;;;;;;;41.70;22.20;;;;;;;6.05;76.31;101182.81;5032041;28;20171;-72
2021/03/27 05:53:15;;;;;;;36.45;21.13;;;;;;;6.08;75.95;101179.75;5030076;28;20452;-72
2021/03/27 05:55:41;;;;;;;46.65;22.02;;;;;;;6.06;76.33;101179.97;5084719;27;20052;-75
2021/03/27 05:58:18;;;;;;;39.60;21.67;;;;;;;5.97;76.60;101178.56;5092052;28;20034;-77
2021/03/27 06:01:21;;;;;;;43.63;23.65;;;;;;;5.90;77.27;101171.59;5073946;28;20061;-75
2021/03/27 06:04:06;;;;;;;41.13;21.17;;;;;;;5.83;77.46;101176.91;5093688;27;20974;-73
2021/03/27 06:06:50;;;;;;;39.03;21.60;;;;;;;5.86;77.54;101180.97;5078244;28;21420;-75
2021/03/27 06:09:33;;;;;;;34.13;21.25;;;;;;;6.10;76.35;101176.88;5098054;27;20023;-74
2021/03/27 06:12:17;;;;;;;39.22;21.40;;;;;;;6.48;75.34;101175.16;5097292;28;20028;-75
2021/03/27 06:14:49;;;;;;;35.15;20.13;;;;;;;7.19;72.53;101164.34;5094295;28;20046;-73
2021/03/27 06:17:38;;;;;;;32.80;18.23;;;;;;;7.31;71.58;101174.28;5095726;28;20172;-71
2021/03/27 06:20:25;;;;;;;38.53;20.90;;;;;;;7.27;72.69;101165.91;5090868;28;20027;-73
2021/03/27 06:23:21;;;;;;;39.50;19.77;;;;;;;7.41;72.46;101177.31;5074852;28;20031;-75
2021/03/27 06:26:23;;;;;;;35.08;18.27;;;;;;;7.37;71.79;101168.13;5076480;28;20083;-74
2021/03/27 06:28:58;;;;;;;36.03;18.17;;;;;;;7.28;72.64;101167.53;5061208;28;20091;-72
2021/03/27 06:31:37;;;;;;;34.55;18.75;;;;;;;7.31;71.86;101166.28;5075790;28;20024;-76
2021/03/27 06:34:17;;;;;;;30.17;16.88;;;;;;;7.75;70.40;101157.34;5078229;28;20028;-72
2021/03/27 06:36:48;;;;;;;37.08;17.70;;;;;;;8.00;69.28;101152.75;5079332;28;20032;-74
2021/03/27 06:39:51;;;;;;;32.60;19.52;;;;;;;8.31;67.69;101145.66;5077337;28;20036;-72
2021/03/27 06:42:23;;;;;;;27.63;15.43;;;;;;;8.58;66.63;101148.84;5075606;28;20610;-72
2021/03/27 06:45:29;;;;;;;29.13;16.40;;;;;;;8.62;66.14;101142.84;5073879;28;20414;-76
2021/03/27 06:48:13;;;;;;;27.75;15.85;;;;;;;8.66;66.70;101143.22;5075438;28;20043;-72
2021/03/27 06:51:07;;;;;;;29.03;15.83;;;;;;;8.77;66.76;101143.25;5077747;28;20593;-77
2021/03/27 06:54:04;;;;;;;30.15;17.95;;;;;;;9.03;66.13;101138.59;5078544;28;20490;-74
2021/03/27 06:56:58;;;;;;;34.42;16.58;;;;;;;9.45;64.38;101149.25;5077749;28;20023;-75
2021/03/27 06:59:51;;;;;;;23.83;13.43;;;;;;;9.61;63.42;101153.91;5063305;28;20473;-73
2021/03/27 07:02:32;;;;;;;34.25;16.75;;;;;;;9.63;63.23;101146.47;5078516;28;21018;-77
2021/03/27 07:05:22;;;;;;;22.77;13.25;;;;;;;9.61;63.93;101145.91;5076618;28;20024;-76
2021/03/27 07:07:56;;;;;;;28.27;16.25;;;;;;;9.42;62.93;101145.19;5079575;28;20031;-73
2021/03/27 07:11:06;;;;;;;26.93;15.57;;;;;;;9.32;63.49;101143.06;5076854;28;20027;-73
2021/03/27 07:14:06;;;;;;;25.02;14.45;;;;;;;9.40;63.29;101139.25;4994021;28;20030;-73
2021/03/27 07:16:40;;;;;;;25.27;15.30;;;;;;;9.49;63.77;101145.06;4992682;28;21006;-77
2021/03/27 07:19:50;;;;;;;27.77;16.20;;;;;;;9.29;64.47;101145.38;5057687;28;20420;-75
2021/03/27 07:22:53;;;;;;;26.33;13.75;;;;;;;9.03;64.09;101149.28;5058675;28;20039;-73
2021/03/27 07:25:32;;;;;;;24.35;14.02;;;;;;;8.94;64.91;101147.94;5077417;28;20050;-72
2021/03/27 07:28:20;;;;;;;24.25;14.52;;;;;;;8.97;64.21;101132.28;5077759;28;20498;-74
2021/03/27 07:31:11;;;;;;;18.63;11.35;;;;;;;9.01;64.23;101149.50;5073469;28;20036;-76
2021/03/27 07:33:58;;;;;;;27.92;16.40;;;;;;;9.12;65.03;101149.75;5075662;28;20175;-73
2021/03/27 07:36:42;;;;;;;27.95;16.42;;;;;;;8.93;66.25;101157.84;5062453;28;20139;-75
2021/03/27 07:39:50;;;;;;;30.20;16.77;;;;;;;9.07;66.25;101147.78;5079061;28;20111;-77
2021/03/27 07:42:38;;;;;;;25.58;16.08;;;;;;;9.51;64.82;101142.97;5046553;28;20032;-75
2021/03/27 07:45:41;;;;;;;29.05;15.68;;;;;;;9.92;63.00;101142.06;5076706;28;20115;-76
2021/03/27 07:48:28;;;;;;;29.17;15.65;;;;;;;10.41;62.01;101143.41;5074817;28;20023;-77
2021/03/27 07:51:21;;;;;;;21.98;14.48;;;;;;;10.65;60.30;101137.97;5073224;28;20101;-75
2021/03/27 07:54:07;;;;;;;26.98;16.40;;;;;;;11.02;60.64;101139.22;5094962;28;20070;-73
2021/03/27 07:57:17;;;;;;;24.63;14.23;;;;;;;11.32;58.68;101138.94;5079969;28;20486;-74
2021/03/27 07:59:49;;;;;;;26.92;14.73;;;;;;;11.70;57.39;101130.13;5063208;28;20059;-74
2021/03/27 08:02:36;;;;;;;22.50;12.85;;;;;;;11.73;56.07;101124.25;5074959;28;20020;-74
2021/03/27 08:05:29;;;;;;;27.23;14.80;;;;;;;11.36;57.40;101131.19;5078725;28;20032;-74
2021/03/27 08:07:55;;;;;;;21.23;13.68;;;;;;;11.07;58.28;101139.28;5077422;28;20024;-74
2021/03/27 08:10:46;;;;;;;24.27;14.77;;;;;;;11.12;58.23;101141.22;5078076;28;20081;-74
2021/03/27 08:13:43;;;;;;;19.67;12.85;;;;;;;11.34;56.84;101141.34;5076029;28;20210;-73
2021/03/27 08:16:46;;;;;;;21.27;12.68;;;;;;;11.51;55.46;101147.53;5078584;28;20032;-76
2021/03/27 08:19:53;;;;;;;22.65;13.95;;;;;;;11.46;56.54;101155.50;5072287;28;20030;-74
2021/03/27 08:22:52;;;;;;;21.42;12.90;;;;;;;11.70;55.56;101172.25;5021020;28;20093;-76
2021/03/27 08:25:41;;;;;;;20.55;10.70;;;;;;;11.97;55.17;101165.16;5078796;28;20116;-74
2021/03/27 08:28:28;;;;;;;15.85;10.15;;;;;;;12.08;53.48;101183.06;5078026;28;20809;-74
2021/03/27 08:31:17;;;;;;;17.77;12.57;;;;;;;11.93;53.42;101192.75;5078465;28;20582;-73
2021/03/27 08:34:09;;;;;;;20.42;12.02;;;;;;;12.17;53.65;101196.06;5050757;28;20048;-79
2021/03/27 08:37:01;;;;;;;21.15;12.40;;;;;;;12.17;54.58;101207.63;5052212;28;20040;-77
2021/03/27 08:39:32;;;;;;;17.63;12.05;;;;;;;11.91;57.02;101219.88;5024478;28;20787;-74
2021/03/27 08:42:01;;;;;;;18.10;10.88;;;;;;;11.29;61.36;101229.78;5073817;28;20167;-75
2021/03/27 08:45:16;;;;;;;15.95;9.80;;;;;;;10.95;64.31;101228.88;5072028;28;20029;-79
2021/03/27 08:47:59;;;;;;;14.95;9.82;;;;;;;10.58;66.63;101234.56;5070439;28;21201;-76
2021/03/27 08:50:53;;;;;;;17.38;11.13;;;;;;;10.22;70.15;101251.72;5077341;28;20075;-75
2021/03/27 08:53:25;;;;;;;18.33;11.45;;;;;;;9.92;71.61;101249.94;5079450;28;20041;-79
2021/03/27 08:56:24;;;;;;;18.92;10.85;;;;;;;9.86;71.52;101252.72;5077247;28;20513;-76
2021/03/27 08:59:09;;;;;;;17.88;10.75;;;;;;;9.59;73.06;101268.38;5077002;28;20755;-77
2021/03/27 09:01:40;;;;;;;15.70;10.48;;;;;;;9.38;75.00;101283.91;5078598;28;20785;-75
2021/03/27 09:04:17;;;;;;;19.02;11.65;;;;;;;9.31;74.66;101272.47;5075753;28;20035;-74
2021/03/27 09:06:53;;;;;;;18.25;11.10;;;;;;;9.07;76.24;101292.13;5076194;28;20024;-78
2021/03/27 09:10:00;;;;;;;26.55;11.45;;;;;;;8.88;76.52;101293.16;5060333;28;20211;-76
2021/03/27 09:12:49;;;;;;;18.48;11.45;;;;;;;8.68;77.15;101290.72;5075787;28;20040;-76
2021/03/27 09:15:36;;;;;;;22.23;12.77;;;;;;;8.58;78.48;101288.56;5074410;28;20494;-76
2021/03/27 09:18:39;;;;;;;20.60;12.35;;;;;;;8.56;78.82;101295.97;5079036;28;20032;-75
2021/03/27 09:21:27;;;;;;;21.45;12.77;;;;;;;8.57;79.63;101310.97;5077191;28;20054;-74
2021/03/27 09:23:53;;;;;;;20.45;13.32;;;;;;;8.58;79.95;101317.13;5077974;28;20024;-74
2021/03/27 09:26:37;;;;;;;21.55;13.85;;;;;;;8.46;80.11;101338.41;5076712;28;20113;-75
2021/03/27 09:29:42;;;;;;;22.85;12.05;;;;;;;8.52;79.56;101353.53;5078265;28;20024;-75
2021/03/27 09:32:29;;;;;;;20.63;13.55;;;;;;;8.52;79.64;101350.88;5071575;28;20034;-75
2021/03/27 09:35:13;;;;;;;22.60;12.98;;;;;;;8.46;78.67;101371.28;5077192;28;20034;-74
2021/03/27 09:38:00;;;;;;;20.90;11.52;;;;;;;8.46;78.25;101365.94;5079044;28;20031;-78
2021/03/27 09:41:07;;;;;;;18.42;12.30;;;;;;;8.26;79.62;101391.09;5078255;28;20035;-75
2021/03/27 09:44:06;;;;;;;16.83;10.15;;;;;;;8.18;78.86;101411.69;5036367;28;20058;-76
2021/03/27 09:47:05;;;;;;;10.25;6.07;;;;;;;7.77;79.96;101417.50;5077922;28;20020;-74
2021/03/27 09:49:58;;;;;;;7.88;5.30;;;;;;;7.33;81.53;101418.28;5061882;28;20119;-74
2021/03/27 09:52:42;;;;;;;9.88;6.28;;;;;;;6.77;85.08;101457.94;5079125;28;20028;-74
2021/03/27 09:55:26;;;;;;;10.80;6.63;;;;;;;6.58;87.17;101479.03;5079301;28;20035;-74
2021/03/27 09:58:22;;;;;;;10.60;6.70;;;;;;;6.58;88.54;101475.56;5075502;28;21538;-76
2021/03/27 10:00:47;;;;;;;8.93;6.20;;;;;;;6.53;89.18;101493.97;5074997;28;20038;-74
2021/03/27 10:03:30;;;;;;;8.00;4.93;;;;;;;6.40;89.10;101496.63;5073615;28;20622;-76
2021/03/27 10:06:08;;;;;;;7.05;4.57;;;;;;;6.47;88.16;101497.47;5056704;28;20111;-74
2021/03/27 10:09:02;;;;;;;5.40;3.65;;;;;;;6.33;86.75;101501.94;5074185;28;20027;-74
2021/03/27 10:11:32;;;;;;;3.75;2.60;;;;;;;6.22;86.28;101511.31;5048189;28;20043;-76
2021/03/27 10:14:10;;;;;;;2.90;2.00;;;;;;;6.05;84.75;101520.69;5054269;28;20474;-74
2021/03/27 10:16:39;;;;;;;2.53;1.83;;;;;;;5.88;86.19;101525.47;5073882;28;20038;-74
2021/03/27 10:19:04;;;;;;;4.68;2.13;;;;;;;5.83;87.01;101569.66;5078237;28;20046;-74
2021/03/27 10:21:38;;;;;;;3.72;2.20;;;;;;;5.81;87.51;101529.97;5077912;28;20036;-74
2021/03/27 10:24:03;;;;;;;2.92;1.88;;;;;;;5.85;87.76;101547.16;5063672;28;20032;-76
2021/03/27 10:26:47;;;;;;;5.30;2.00;;;;;;;5.78;87.89;101556.13;5095176;28;20019;-75
2021/03/27 10:29:45;;;;;;;4.00;1.80;;;;;;;5.71;89.04;101561.41;5075583;28;20024;-73
2021/03/27 10:32:31;;;;;;;2.15;1.83;;;;;;;5.64;88.18;101555.22;5075016;28;20035;-74
2021/03/27 10:35:03;;;;;;;2.20;1.95;;;;;;;5.69;87.76;101563.44;5092888;28;20093;-75
2021/03/27 10:37:50;;;;;;;2.33;1.60;;;;;;;5.67;86.80;101568.94;5093449;27;20096;-74
2021/03/27 10:40:33;;;;;;;3.88;2.03;;;;;;;5.62;87.34;101579.34;5096107;28;20386;-74
2021/03/27 10:43:18;;;;;;;3.20;2.15;;;;;;;5.58;87.95;101591.41;5094784;28;20130;-74
2021/03/27 10:45:55;;;;;;;3.20;1.83;;;;;;;5.63;89.18;101598.78;5095463;28;20813;-77
2021/03/27 10:48:25;;;;;;;4.15;2.50;;;;;;;5.70;89.06;101611.09;5096926;28;20023;-75
2021/03/27 10:51:24;;;;;;;2.90;1.60;;;;;;;5.63;89.23;101620.06;5094664;28;20787;-76
2021/03/27 10:53:52;;;;;;;2.63;1.80;;;;;;;5.67;89.93;101621.31;5094882;28;20031;-74
2021/03/27 10:56:24;;;;;;;3.30;1.83;;;;;;;5.84;88.24;101624.50;5096660;28;20035;-75
2021/03/27 10:58:59;;;;;;;2.17;1.65;;;;;;;5.97;87.25;101636.06;5091025;28;20097;-78
2021/03/27 11:02:03;;;;;;;3.55;2.20;;;;;;;5.97;86.30;101633.41;5076906;28;20030;-75
2021/03/27 11:04:34;;;;;;;3.72;1.88;;;;;;;5.96;86.32;101628.28;5096178;28;20026;-75
2021/03/27 11:07:37;;;;;;;3.00;2.05;;;;;;;6.05;87.14;101633.22;5093224;28;20474;-74
2021/03/27 11:10:44;;;;;;;2.75;1.85;;;;;;;5.94;87.29;101632.97;5096196;28;22071;-73
2021/03/27 11:13:28;;;;;;;2.90;1.70;;;;;;;6.14;85.21;101623.25;4983130;28;20049;-75
2021/03/27 11:16:12;;;;;;;2.78;1.60;;;;;;;6.36;85.66;101635.44;4990317;28;20820;-74
2021/03/27 11:19:15;;;;;;;2.22;1.40;;;;;;;6.32;85.75;101641.38;5046180;28;20883;-76
2021/03/27 11:22:05;;;;;;;1.83;1.38;;;;;;;6.17;85.61;101654.78;5077895;28;20043;-74
2021/03/27 11:24:46;;;;;;;2.47;1.77;;;;;;;6.43;85.12;101643.44;5060122;28;20058;-76
2021/03/27 11:27:28;;;;;;;4.18;1.85;;;;;;;6.77;83.63;101647.84;5055163;28;20086;-78
2021/03/27 11:30:15;;;;;;;2.80;1.63;;;;;;;6.92;81.60;101655.69;5059958;28;20105;-76
2021/03/27 11:32:50;;;;;;;1.95;1.30;;;;;;;7.03;81.61;101662.28;5075011;28;20047;-74
2021/03/27 11:35:24;;;;;;;3.15;1.90;;;;;;;6.98;80.09;101674.34;5072152;28;20021;-77
2021/03/27 11:38:23;;;;;;;2.30;1.70;;;;;;;7.02;80.21;101666.78;5078167;28;20028;-74
2021/03/27 11:41:18;;;;;;;2.10;1.63;;;;;;;7.16;78.40;101670.28;5076832;28;20032;-75
2021/03/27 11:44:05;;;;;;;2.15;1.73;;;;;;;7.17;77.98;101677.25;5078582;28;20103;-77
2021/03/27 11:46:56;;;;;;;1.85;1.70;;;;;;;7.46;77.05;101684.06;5079327;28;20492;-76
2021/03/27 11:49:27;;;;;;;1.38;1.05;;;;;;;7.54;73.62;101682.03;5061395;28;20085;-74
2021/03/27 11:52:02;;;;;;;2.53;1.38;;;;;;;7.92;73.97;101681.38;5080151;28;20052;-75
2021/03/27 11:54:49;;;;;;;2.08;1.50;;;;;;;8.39;73.21;101693.59;5061930;28;20032;-77
2021/03/27 11:57:26;;;;;;;2.65;1.70;;;;;;;9.01;72.70;101696.63;5061881;28;20904;-74
2021/03/27 12:03:26;;;;;;;1.80;1.42;;;;;;;9.23;67.65;101697.13;5072717;28;20047;-74
2021/03/27 12:05:55;;;;;;;3.08;2.00;;;;;;;10.44;63.54;101702.03;5068433;28;20024;-77
2021/03/27 12:08:39;;;;;;;2.33;1.50;;;;;;;10.55;61.60;101701.25;5077578;28;20031;-75
2021/03/27 12:11:17;;;;;;;4.90;2.17;;;;;;;10.82;62.38;101707.13;5074761;28;20089;-75
2021/03/27 12:14:01;;;;;;;3.28;1.70;;;;;;;11.80;56.45;101702.16;5057925;28;20112;-77
2021/03/27 12:16:35;;;;;;;1.83;1.67;;;;;;;12.04;53.53;101702.19;5078548;28;20467;-78
2021/03/27 12:19:32;;;;;;;3.50;1.97;;;;;;;13.19;50.58;101691.34;5074769;28;20062;-75
2021/03/27 12:22:01;;;;;;;2.10;1.90;;;;;;;14.26;49.23;101694.88;5077421;28;20377;-75
2021/03/27 12:24:29;;;;;;;3.55;1.83;;;;;;;12.71;50.74;101697.94;5058434;28;20394;-76
2021/03/27 12:27:18;;;;;;;1.65;1.50;;;;;;;14.04;51.07;101694.84;5054451;28;20517;-79
2021/03/27 12:29:58;;;;;;;2.58;1.55;;;;;;;14.39;46.84;101699.91;5075673;28;20055;-76
2021/03/27 12:32:40;;;;;;;1.50;1.40;;;;;;;13.76;47.47;101701.97;5074138;28;20635;-77
2021/03/27 12:35:21;;;;;;;1.63;1.40;;;;;;;13.25;48.87;101701.13;5077130;28;20595;-78
2021/03/27 12:37:59;;;;;;;2.13;1.92;;;;;;;14.07;47.41;101697.84;5078205;28;20064;-79